Terminal Aerodrome Forecast
Issued by NWS Jackson, MS

Home | Current Version | Previous Version | Text Only | Print | Product List | Glossary On
Versions: 1 2 3 4 5 6 7 8 9 10 11 12 13
000
FTUS44 KJAN 252320
TAFGWO
TAF
KGWO 252320Z 2600/2624 15010KT P6SM BKN110
     FM260900 17004KT P6SM BKN015
     FM261400 18009KT P6SM OVC008
     FM261800 18010KT P6SM BKN050=

USA.gov is the U.S. government's official web portal to all federal, state and local government web resources and services.